Time;durP1;ratioP1;P1;durP2;ratioP2;P2;SDS_P1;SDS_P2;PMS_P1;PMS_P2;Temp;Humidity;BMP_temperature;BMP_pressure;BME280_temperature;BME280_humidity;BME280_pressure;Samples;Min_cycle;Max_cycle;Signal;HPM_P1;HPM_P2
2020/12/15 00:01:59;;;;;;;8.60;2.85;;;15.60;50.40;;;;;;5100768;28;20052;-75
2020/12/15 00:04:28;;;;;;;17.92;6.10;;;15.70;51.40;;;;;;5090672;28;20471;-75
2020/12/15 00:06:55;;;;;;;18.90;4.70;;;15.70;50.70;;;;;;5096122;28;20024;-75
2020/12/15 00:09:21;;;;;;;16.05;3.80;;;15.70;51.20;;;;;;5096566;28;20028;-75
2020/12/15 00:11:48;;;;;;;19.23;4.38;;;15.60;51.20;;;;;;5124290;28;20019;-75
2020/12/15 00:14:14;;;;;;;20.02;5.18;;;15.50;51.40;;;;;;5123228;28;20059;-75
2020/12/15 00:16:40;;;;;;;12.20;4.85;;;15.50;51.80;;;;;;5105885;28;20036;-75
2020/12/15 00:19:07;;;;;;;11.98;3.95;;;15.40;52.30;;;;;;5098825;28;20034;-75
2020/12/15 00:21:33;;;;;;;18.08;3.75;;;15.30;52.30;;;;;;5101171;28;20039;-75
2020/12/15 00:24:00;;;;;;;16.48;3.88;;;15.30;52.60;;;;;;5103687;28;20024;-74
2020/12/15 00:26:26;;;;;;;15.70;4.85;;;15.20;52.60;;;;;;5105373;28;20052;-76
2020/12/15 00:28:54;;;;;;;14.90;4.40;;;15.10;52.80;;;;;;5109031;28;20126;-75
2020/12/15 00:31:21;;;;;;;12.50;3.20;;;15.10;52.90;;;;;;5105618;28;20051;-75
2020/12/15 00:33:47;;;;;;;15.48;3.55;;;15.00;53.60;;;;;;5091225;28;20099;-75
2020/12/15 00:36:20;;;;;;;16.42;4.10;;;15.00;53.30;;;;;;5097547;28;20035;-75
2020/12/15 00:38:47;;;;;;;14.57;4.15;;;14.80;53.50;;;;;;5093552;28;20045;-75
2020/12/15 00:41:13;;;;;;;24.15;4.68;;;14.70;53.80;;;;;;5096846;28;20036;-75
2020/12/15 00:43:40;;;;;;;15.82;3.50;;;14.60;54.20;;;;;;5096980;28;20032;-74
2020/12/15 00:46:06;;;;;;;24.45;6.18;;;14.40;54.20;;;;;;5091170;28;20028;-75
2020/12/15 00:48:33;;;;;;;15.27;3.75;;;14.30;54.80;;;;;;5091423;28;20693;-75
2020/12/15 00:50:59;;;;;;;19.65;4.30;;;14.30;54.90;;;;;;5093869;28;20024;-75
2020/12/15 00:53:25;;;;;;;22.13;4.65;;;14.30;55.00;;;;;;5093930;28;20024;-75
2020/12/15 00:55:52;;;;;;;23.95;5.90;;;14.20;55.70;;;;;;5085316;28;20012;-74
2020/12/15 00:58:19;;;;;;;28.70;5.65;;;14.20;55.50;;;;;;5096723;28;20036;-75
2020/12/15 01:00:45;;;;;;;18.48;4.88;;;14.10;55.80;;;;;;5099714;28;20485;-75
2020/12/15 01:03:12;;;;;;;19.83;4.50;;;13.90;56.90;;;;;;5103593;28;20043;-75
2020/12/15 01:05:38;;;;;;;18.90;4.20;;;13.80;57.60;;;;;;5099362;28;20032;-75
2020/12/15 01:08:04;;;;;;;17.63;5.80;;;13.70;58.20;;;;;;5097724;28;20028;-75
2020/12/15 01:10:31;;;;;;;30.20;7.05;;;13.70;57.30;;;;;;5096484;28;20025;-75
2020/12/15 01:12:57;;;;;;;31.52;6.20;;;13.70;57.50;;;;;;5089034;28;20077;-75
2020/12/15 01:15:24;;;;;;;24.33;5.68;;;13.70;57.30;;;;;;5092049;28;20074;-76
2020/12/15 01:17:50;;;;;;;21.63;5.00;;;13.70;57.20;;;;;;5091625;28;20024;-74
2020/12/15 01:20:16;;;;;;;23.52;6.55;;;13.60;57.40;;;;;;5087063;28;20025;-75
2020/12/15 01:22:43;;;;;;;20.00;6.35;;;13.60;57.40;;;;;;5080700;28;20028;-75
2020/12/15 01:25:09;;;;;;;21.75;5.68;;;13.50;57.50;;;;;;5092900;28;20388;-75
2020/12/15 01:27:36;;;;;;;18.77;6.70;;;13.40;57.50;;;;;;5099514;28;20035;-75
2020/12/15 01:30:03;;;;;;;31.48;7.40;;;13.40;57.90;;;;;;5096903;28;20024;-74
2020/12/15 01:32:29;;;;;;;33.28;8.50;;;13.40;56.50;;;;;;5092347;28;20067;-75
2020/12/15 01:34:56;;;;;;;36.33;10.45;;;13.40;58.10;;;;;;5112372;28;20024;-74
2020/12/15 01:37:22;;;;;;;22.17;6.50;;;13.20;56.50;;;;;;5107417;28;20031;-75
2020/12/15 01:39:49;;;;;;;29.42;7.25;;;13.20;58.60;;;;;;5105859;28;20016;-75
2020/12/15 01:42:15;;;;;;;31.48;7.63;;;13.20;58.30;;;;;;5106069;28;20028;-75
2020/12/15 01:44:42;;;;;;;38.50;7.70;;;13.20;58.00;;;;;;5104756;28;20110;-74
2020/12/15 01:47:09;;;;;;;27.15;6.25;;;13.20;57.80;;;;;;5105578;28;20028;-74
2020/12/15 01:49:35;;;;;;;24.00;7.18;;;12.90;60.10;;;;;;5115632;28;20126;-75
2020/12/15 01:52:03;;;;;;;28.88;7.60;;;12.90;59.40;;;;;;5096114;28;20050;-75
2020/12/15 01:54:29;;;;;;;39.95;8.82;;;12.80;59.60;;;;;;5100072;28;20016;-75
2020/12/15 01:56:56;;;;;;;40.50;8.60;;;12.70;59.40;;;;;;5110340;28;20035;-75
2020/12/15 01:59:23;;;;;;;44.35;8.65;;;12.70;59.80;;;;;;5105370;28;20028;-75
2020/12/15 02:01:50;;;;;;;33.33;8.38;;;12.80;58.70;;;;;;5100513;28;20024;-75
2020/12/15 02:04:16;;;;;;;43.13;9.90;;;12.90;60.30;;;;;;5101709;28;20053;-74
2020/12/15 02:06:46;;;;;;;32.20;7.68;;;12.90;59.60;;;;;;5104045;28;20024;-75
2020/12/15 02:09:13;;;;;;;38.67;9.05;;;12.80;59.80;;;;;;5089646;28;20025;-75
2020/12/15 02:11:40;;;;;;;36.10;9.13;;;12.70;60.50;;;;;;5103500;28;20024;-75
2020/12/15 02:14:06;;;;;;;30.13;8.65;;;12.60;60.60;;;;;;5094440;28;20028;-74
2020/12/15 02:16:34;;;;;;;36.47;8.75;;;12.50;61.20;;;;;;5093440;28;20108;-74
2020/12/15 02:19:00;;;;;;;43.47;8.90;;;12.50;60.80;;;;;;5095675;28;20028;-75
2020/12/15 02:21:27;;;;;;;39.05;8.90;;;12.60;59.80;;;;;;5096553;28;20449;-75
2020/12/15 02:23:53;;;;;;;38.75;9.45;;;12.60;59.60;;;;;;5093575;28;20032;-73
2020/12/15 02:26:20;;;;;;;34.53;7.80;;;12.70;60.40;;;;;;5091909;28;20073;-74
2020/12/15 02:28:46;;;;;;;23.20;6.45;;;12.70;59.90;;;;;;5094230;28;20094;-74
2020/12/15 02:31:12;;;;;;;22.80;6.00;;;12.70;60.50;;;;;;5095111;28;20024;-74
2020/12/15 02:33:39;;;;;;;19.95;5.70;;;12.60;60.90;;;;;;5096533;28;20020;-75
2020/12/15 02:36:05;;;;;;;32.55;7.78;;;12.60;60.50;;;;;;5095935;28;20020;-75
2020/12/15 02:38:32;;;;;;;27.30;8.02;;;12.70;60.10;;;;;;5102587;28;20345;-75
2020/12/15 02:40:58;;;;;;;23.55;6.45;;;12.60;60.60;;;;;;5106558;28;20031;-76
2020/12/15 02:43:24;;;;;;;25.98;5.63;;;12.60;60.90;;;;;;5097194;28;20097;-75
2020/12/15 02:45:51;;;;;;;32.38;7.35;;;12.50;60.70;;;;;;5090642;28;20115;-75
2020/12/15 02:48:17;;;;;;;20.58;6.07;;;12.60;60.00;;;;;;5089922;28;20024;-74
2020/12/15 02:50:44;;;;;;;20.00;5.43;;;12.60;60.30;;;;;;5092923;28;20035;-76
2020/12/15 02:53:10;;;;;;;18.63;5.55;;;12.50;60.20;;;;;;5095131;28;20027;-75
2020/12/15 02:55:36;;;;;;;25.92;6.22;;;12.60;60.10;;;;;;5085948;28;20477;-75
2020/12/15 02:58:03;;;;;;;35.30;9.23;;;12.50;59.90;;;;;;5094536;28;20055;-76
2020/12/15 03:00:29;;;;;;;31.35;7.32;;;12.40;60.40;;;;;;5092247;28;20028;-75
2020/12/15 03:02:55;;;;;;;29.33;6.10;;;12.40;59.80;;;;;;5089693;28;20031;-75
2020/12/15 03:05:22;;;;;;;27.25;6.50;;;12.30;60.20;;;;;;5092394;28;20028;-74
2020/12/15 03:07:49;;;;;;;20.23;6.00;;;12.20;59.80;;;;;;5091427;28;20046;-76
2020/12/15 03:10:16;;;;;;;27.00;6.82;;;12.20;59.90;;;;;;5092839;28;20030;-74
2020/12/15 03:12:42;;;;;;;26.08;6.88;;;12.10;60.70;;;;;;5092936;28;20028;-75
2020/12/15 03:15:09;;;;;;;27.10;5.60;;;11.90;60.50;;;;;;5086902;28;20111;-75
2020/12/15 03:17:35;;;;;;;25.20;8.18;;;11.90;61.30;;;;;;5088663;28;20024;-74
2020/12/15 03:20:01;;;;;;;25.75;7.25;;;11.80;61.30;;;;;;5091460;28;20119;-74
2020/12/15 03:22:28;;;;;;;16.48;8.30;;;11.70;61.40;;;;;;5091314;28;20016;-75
2020/12/15 03:24:54;;;;;;;242.93;136.48;;;11.60;61.40;;;;;;5089216;28;20020;-75
2020/12/15 03:27:21;;;;;;;31.20;11.10;;;11.70;60.50;;;;;;5094804;28;20027;-75
2020/12/15 03:29:47;;;;;;;27.27;6.13;;;11.70;60.90;;;;;;5084961;28;20086;-75
2020/12/15 03:32:13;;;;;;;26.20;6.82;;;11.60;61.30;;;;;;5087968;28;20035;-75
2020/12/15 03:34:40;;;;;;;26.08;6.63;;;11.60;61.70;;;;;;5086830;28;20099;-75
2020/12/15 03:37:06;;;;;;;27.00;6.97;;;11.50;61.70;;;;;;5082985;28;20020;-75
2020/12/15 03:39:34;;;;;;;31.33;6.45;;;11.40;61.60;;;;;;5095328;28;20032;-74
2020/12/15 03:42:01;;;;;;;19.23;5.45;;;11.40;60.90;;;;;;5095053;28;20024;-75
2020/12/15 03:44:28;;;;;;;29.05;6.60;;;11.40;60.40;;;;;;5091931;28;20120;-75
2020/12/15 03:46:54;;;;;;;22.42;7.13;;;11.40;61.00;;;;;;5092594;28;20050;-75
2020/12/15 03:49:20;;;;;;;20.23;5.95;;;11.40;60.50;;;;;;5075880;28;20362;-75
2020/12/15 03:51:47;;;;;;;34.35;8.60;;;11.20;60.20;;;;;;5090663;28;20032;-75
2020/12/15 03:54:13;;;;;;;24.00;7.85;;;11.20;60.90;;;;;;5093274;28;20118;-75
2020/12/15 03:56:39;;;;;;;23.05;5.57;;;11.20;61.20;;;;;;5093357;28;20356;-75
2020/12/15 03:59:06;;;;;;;26.00;5.70;;;11.00;62.30;;;;;;5094140;28;20496;-74
2020/12/15 04:01:32;;;;;;;25.45;6.30;;;11.00;61.70;;;;;;5091275;28;20369;-74
2020/12/15 04:03:59;;;;;;;28.98;7.03;;;10.90;61.60;;;;;;5087941;28;20104;-74
2020/12/15 04:06:26;;;;;;;35.85;7.03;;;10.80;62.40;;;;;;5093083;28;20034;-74
2020/12/15 04:08:52;;;;;;;35.50;7.38;;;10.80;62.30;;;;;;5084801;28;20036;-74
2020/12/15 04:11:19;;;;;;;33.10;8.02;;;10.70;62.20;;;;;;5083445;28;20035;-74
2020/12/15 04:13:45;;;;;;;27.98;7.70;;;10.70;62.40;;;;;;5090162;28;20446;-75
2020/12/15 04:16:11;;;;;;;39.38;8.80;;;10.60;62.80;;;;;;5091476;28;20319;-75
2020/12/15 04:18:38;;;;;;;28.90;6.65;;;10.70;63.10;;;;;;5095860;28;20032;-75
2020/12/15 04:21:04;;;;;;;30.35;8.63;;;10.60;62.80;;;;;;5090862;28;20021;-75
2020/12/15 04:23:30;;;;;;;30.90;8.02;;;10.70;63.20;;;;;;5087699;28;20094;-74
2020/12/15 04:26:00;;;;;;;21.98;8.27;;;10.70;63.90;;;;;;5092301;28;20055;-74
2020/12/15 04:28:26;;;;;;;30.85;8.25;;;10.70;63.10;;;;;;5093830;28;20028;-75
2020/12/15 04:30:53;;;;;;;33.42;7.05;;;10.70;62.90;;;;;;5094407;28;20035;-74
2020/12/15 04:33:20;;;;;;;17.48;6.70;;;10.80;63.10;;;;;;5091670;28;20044;-75
2020/12/15 04:35:46;;;;;;;24.73;5.80;;;10.90;63.30;;;;;;5093034;28;20089;-75
2020/12/15 04:38:13;;;;;;;20.38;5.93;;;10.90;63.00;;;;;;5088819;28;20024;-74
2020/12/15 04:40:40;;;;;;;26.48;7.50;;;11.00;63.10;;;;;;5084011;28;20346;-74
2020/12/15 04:43:07;;;;;;;18.60;5.63;;;11.00;62.90;;;;;;5094585;28;20573;-75
2020/12/15 04:45:35;;;;;;;26.10;6.35;;;11.00;62.60;;;;;;5094789;28;20040;-75
2020/12/15 04:48:23;;;;;;;22.63;5.20;;;10.90;63.00;;;;;;5096308;28;20120;-75
2020/12/15 04:50:58;;;;;;;41.90;6.85;;;10.70;63.00;;;;;;5109319;28;20020;-76
2020/12/15 04:53:27;;;;;;;23.33;5.97;;;10.60;62.70;;;;;;5105753;28;20016;-75
2020/12/15 04:55:57;;;;;;;21.98;5.90;;;10.80;63.40;;;;;;5098770;28;20424;-75
2020/12/15 04:58:24;;;;;;;20.73;5.93;;;10.90;62.80;;;;;;5095025;28;20028;-74
2020/12/15 05:00:50;;;;;;;26.55;6.38;;;10.90;62.80;;;;;;5092677;28;20454;-74
2020/12/15 05:03:21;;;;;;;24.38;7.10;;;10.80;62.80;;;;;;5093061;28;20036;-74
2020/12/15 05:05:50;;;;;;;15.77;4.80;;;10.80;63.30;;;;;;5091216;28;20066;-75
2020/12/15 05:08:17;;;;;;;20.77;5.95;;;10.70;63.10;;;;;;5086548;28;20120;-74
2020/12/15 05:10:44;;;;;;;17.10;5.47;;;10.80;62.90;;;;;;5095295;28;20417;-75
2020/12/15 05:13:10;;;;;;;24.70;4.70;;;10.70;63.10;;;;;;5096853;28;20411;-74
2020/12/15 05:15:37;;;;;;;17.23;5.43;;;10.60;63.30;;;;;;5098826;28;20020;-75
2020/12/15 05:18:04;;;;;;;16.48;4.85;;;10.60;63.30;;;;;;5095192;28;20484;-75
2020/12/15 05:20:33;;;;;;;16.38;4.75;;;10.40;63.00;;;;;;5086360;28;20357;-74
2020/12/15 05:23:00;;;;;;;18.00;5.10;;;10.30;63.30;;;;;;5090410;28;20028;-74
2020/12/15 05:25:35;;;;;;;11.63;4.20;;;10.30;64.10;;;;;;5091911;28;20162;-75
2020/12/15 05:28:09;;;;;;;19.85;5.60;;;10.40;63.40;;;;;;5098386;28;20036;-75
2020/12/15 05:30:36;;;;;;;19.85;6.40;;;10.50;63.60;;;;;;5090461;28;20017;-75
2020/12/15 05:33:02;;;;;;;14.15;5.40;;;10.50;63.80;;;;;;5084926;28;20032;-74
2020/12/15 05:35:33;;;;;;;21.58;5.22;;;10.40;63.50;;;;;;5094154;28;20372;-75
2020/12/15 05:38:02;;;;;;;15.85;6.35;;;10.30;63.30;;;;;;5096602;28;20118;-74
2020/12/15 05:40:30;;;;;;;10.32;4.57;;;10.20;64.00;;;;;;5088250;28;20090;-75
2020/12/15 05:42:58;;;;;;;7.95;5.00;;;10.20;63.60;;;;;;5085554;28;20116;-74
2020/12/15 05:45:26;;;;;;;9.73;4.47;;;10.30;63.80;;;;;;5083320;28;20028;-74
2020/12/15 05:48:04;;;;;;;11.93;3.78;;;10.30;63.40;;;;;;5095269;28;20543;-74
2020/12/15 05:50:31;;;;;;;19.00;4.78;;;10.20;63.40;;;;;;5095011;28;20028;-75
2020/12/15 05:53:00;;;;;;;15.50;4.55;;;10.00;63.80;;;;;;5092423;28;20477;-75
2020/12/15 05:55:27;;;;;;;18.60;4.13;;;9.90;63.90;;;;;;5097770;28;20040;-74
2020/12/15 05:57:54;;;;;;;15.68;4.43;;;10.00;64.10;;;;;;5101921;28;20032;-75
2020/12/15 06:00:21;;;;;;;21.08;6.32;;;10.00;63.40;;;;;;5095072;28;20073;-74
2020/12/15 06:03:02;;;;;;;16.45;4.30;;;9.90;63.70;;;;;;5095279;28;20031;-74
2020/12/15 06:05:34;;;;;;;11.57;3.33;;;9.80;63.70;;;;;;5092076;28;20349;-74
2020/12/15 06:08:02;;;;;;;7.43;3.15;;;9.70;64.00;;;;;;5095021;28;20457;-74
2020/12/15 06:10:30;;;;;;;13.75;4.10;;;9.70;64.40;;;;;;5094826;28;20073;-74
2020/12/15 06:12:59;;;;;;;10.77;3.50;;;9.70;64.10;;;;;;5096801;28;20020;-74
2020/12/15 06:15:27;;;;;;;15.25;5.45;;;9.70;64.20;;;;;;5096488;28;20081;-73
2020/12/15 06:17:57;;;;;;;12.02;4.60;;;9.80;63.80;;;;;;5093639;28;20035;-75
2020/12/15 06:20:25;;;;;;;15.02;4.22;;;10.00;63.90;;;;;;5084049;28;20059;-74
2020/12/15 06:22:55;;;;;;;6.80;2.95;;;10.10;63.10;;;;;;5088957;28;20103;-74
2020/12/15 06:25:30;;;;;;;14.73;3.80;;;9.80;63.20;;;;;;5095187;28;20428;-75
2020/12/15 06:28:05;;;;;;;11.75;4.30;;;9.80;63.60;;;;;;5086120;28;20026;-75
2020/12/15 06:30:33;;;;;;;11.15;3.53;;;9.80;63.60;;;;;;5095716;28;20024;-75
2020/12/15 06:33:07;;;;;;;15.65;3.92;;;9.90;63.70;;;;;;5096038;28;20434;-76
2020/12/15 06:35:35;;;;;;;14.13;4.30;;;9.90;63.40;;;;;;5094601;28;20028;-74
2020/12/15 06:38:04;;;;;;;10.63;3.70;;;10.00;63.10;;;;;;5094025;28;20056;-75
2020/12/15 06:40:43;;;;;;;14.93;4.57;;;9.90;63.20;;;;;;5095532;28;20446;-75
2020/12/15 06:43:10;;;;;;;8.32;3.58;;;9.80;63.20;;;;;;5087076;28;20419;-74
2020/12/15 06:45:37;;;;;;;9.02;3.40;;;9.90;63.20;;;;;;5093622;28;20487;-74
2020/12/15 06:48:05;;;;;;;9.98;4.70;;;9.90;63.10;;;;;;5091531;28;20028;-75
2020/12/15 06:50:42;;;;;;;13.65;4.55;;;9.90;63.20;;;;;;5092035;28;20461;-74
2020/12/15 06:53:11;;;;;;;10.85;3.53;;;9.90;63.20;;;;;;5091838;28;20063;-75
2020/12/15 06:55:37;;;;;;;16.05;4.43;;;9.90;63.20;;;;;;5092251;28;20020;-75
2020/12/15 06:58:04;;;;;;;13.10;3.92;;;9.80;63.50;;;;;;5088894;28;20044;-75
2020/12/15 07:00:40;;;;;;;12.60;3.38;;;9.80;63.60;;;;;;5082081;28;20461;-75
2020/12/15 07:03:10;;;;;;;13.65;4.13;;;9.80;63.70;;;;;;5095499;28;20031;-76
2020/12/15 07:05:37;;;;;;;13.35;4.07;;;9.80;63.80;;;;;;5071028;28;20035;-75
2020/12/15 07:08:14;;;;;;;12.32;3.35;;;9.80;63.90;;;;;;5084337;28;20028;-75
2020/12/15 07:10:42;;;;;;;11.27;3.38;;;9.80;63.40;;;;;;5092029;28;20373;-74
2020/12/15 07:13:11;;;;;;;15.18;4.78;;;9.80;63.60;;;;;;5096143;28;20028;-75
2020/12/15 07:15:38;;;;;;;10.38;3.50;;;9.80;63.60;;;;;;5095362;28;20024;-76
2020/12/15 07:18:06;;;;;;;9.50;4.65;;;9.70;63.80;;;;;;5092215;28;20051;-76
2020/12/15 07:20:33;;;;;;;11.00;3.58;;;9.70;63.80;;;;;;5084181;28;20343;-75
2020/12/15 07:22:59;;;;;;;11.15;4.13;;;9.70;63.70;;;;;;5091794;28;20107;-74
2020/12/15 07:25:26;;;;;;;8.57;4.35;;;9.80;63.70;;;;;;5093064;28;20091;-75
2020/12/15 07:27:52;;;;;;;22.80;4.57;;;9.90;63.60;;;;;;5093012;28;20028;-75
2020/12/15 07:30:21;;;;;;;12.38;4.97;;;10.00;63.50;;;;;;5092037;28;20020;-75
2020/12/15 07:32:49;;;;;;;12.43;5.65;;;9.90;63.60;;;;;;5093162;28;20028;-74
2020/12/15 07:35:23;;;;;;;11.40;3.70;;;9.90;63.60;;;;;;5091150;28;20147;-75
2020/12/15 07:37:54;;;;;;;16.30;4.82;;;10.00;63.50;;;;;;5087735;28;20074;-75
2020/12/15 07:40:20;;;;;;;10.93;3.97;;;10.00;63.90;;;;;;5090975;28;20035;-75
2020/12/15 07:43:16;;;;;;;7.53;3.30;;;10.00;63.80;;;;;;5094566;28;20028;-75
2020/12/15 07:45:43;;;;;;;10.73;3.97;;;10.00;63.70;;;;;;5089048;28;20040;-75
2020/12/15 07:48:10;;;;;;;10.25;3.45;;;10.00;64.10;;;;;;5092960;28;20089;-75
2020/12/15 07:50:36;;;;;;;9.45;3.17;;;10.00;64.10;;;;;;5093130;28;20024;-75
2020/12/15 07:53:10;;;;;;;10.73;3.40;;;10.00;64.00;;;;;;5084877;28;20016;-75
2020/12/15 07:55:37;;;;;;;9.00;3.50;;;10.00;64.00;;;;;;5090860;28;20349;-75
2020/12/15 07:58:12;;;;;;;13.35;3.83;;;10.00;64.50;;;;;;5093772;28;20028;-75
2020/12/15 08:00:39;;;;;;;13.35;3.90;;;10.00;64.30;;;;;;5085380;28;20051;-75
2020/12/15 08:03:05;;;;;;;11.57;3.80;;;10.00;64.20;;;;;;5088346;28;20042;-75
2020/12/15 08:05:31;;;;;;;18.23;3.88;;;10.10;64.10;;;;;;5092534;28;20028;-75
2020/12/15 08:08:03;;;;;;;10.95;3.70;;;10.20;63.70;;;;;;5087059;28;20028;-75
2020/12/15 08:10:32;;;;;;;10.43;3.03;;;10.10;63.70;;;;;;5096016;28;20445;-75
2020/12/15 08:13:03;;;;;;;9.02;3.40;;;10.10;64.10;;;;;;5093270;28;20016;-75
2020/12/15 08:15:37;;;;;;;17.13;4.82;;;10.00;64.30;;;;;;5086683;28;20020;-76
2020/12/15 08:18:08;;;;;;;11.27;3.03;;;9.90;64.30;;;;;;5085001;28;20036;-75
2020/12/15 08:20:35;;;;;;;11.82;3.58;;;10.00;64.90;;;;;;5087421;28;20028;-75
2020/12/15 08:23:07;;;;;;;11.80;3.35;;;10.00;64.80;;;;;;5093106;28;20047;-75
2020/12/15 08:25:43;;;;;;;11.75;4.35;;;10.10;64.90;;;;;;5092199;28;20038;-74
2020/12/15 08:28:21;;;;;;;14.25;3.78;;;10.10;64.70;;;;;;5086329;28;20127;-75
2020/12/15 08:30:56;;;;;;;9.90;3.90;;;10.10;64.80;;;;;;5089956;28;20050;-74
2020/12/15 08:33:24;;;;;;;9.20;3.45;;;10.10;64.70;;;;;;5090976;28;20366;-75
2020/12/15 08:35:55;;;;;;;21.30;5.80;;;10.10;64.80;;;;;;5090019;28;20012;-75
2020/12/15 08:38:25;;;;;;;9.68;3.55;;;10.00;65.00;;;;;;5093732;28;20415;-75
2020/12/15 08:41:03;;;;;;;8.27;3.33;;;10.00;65.20;;;;;;5097470;28;20086;-75
2020/12/15 08:43:30;;;;;;;13.27;3.42;;;10.00;65.20;;;;;;5097122;28;20028;-75
2020/12/15 08:45:57;;;;;;;14.15;3.33;;;9.90;65.30;;;;;;5077946;28;20082;-75
2020/12/15 08:48:25;;;;;;;10.63;3.33;;;9.90;65.70;;;;;;5086074;28;20071;-75
2020/12/15 08:50:54;;;;;;;9.35;4.25;;;10.00;65.70;;;;;;5086680;28;20024;-75
2020/12/15 08:53:23;;;;;;;16.30;3.67;;;10.00;65.10;;;;;;5094330;28;20055;-75
2020/12/15 08:55:52;;;;;;;15.35;4.95;;;10.00;65.50;;;;;;5097644;28;20038;-74
2020/12/15 08:58:19;;;;;;;11.90;3.15;;;10.10;65.20;;;;;;5101812;28;20411;-75
2020/12/15 09:00:47;;;;;;;12.60;3.17;;;10.10;65.20;;;;;;5105214;28;20020;-74
2020/12/15 09:03:18;;;;;;;16.08;3.83;;;10.20;65.10;;;;;;5097645;28;20028;-75
2020/12/15 09:05:53;;;;;;;9.10;3.25;;;10.10;65.10;;;;;;5096432;28;20118;-75
2020/12/15 09:08:22;;;;;;;15.55;3.80;;;10.10;65.10;;;;;;5097448;28;20027;-75
2020/12/15 09:10:50;;;;;;;14.07;3.17;;;10.00;65.30;;;;;;5092866;28;20016;-75
2020/12/15 09:13:17;;;;;;;11.82;3.67;;;10.00;65.50;;;;;;5095092;28;20020;-74
2020/12/15 09:15:52;;;;;;;9.52;3.58;;;10.20;65.10;;;;;;5092039;28;20088;-76
2020/12/15 09:18:33;;;;;;;18.55;3.63;;;10.10;65.00;;;;;;5095339;28;20036;-75
2020/12/15 09:21:09;;;;;;;9.13;3.33;;;10.10;65.10;;;;;;5093253;28;20024;-75
2020/12/15 09:23:36;;;;;;;6.45;3.63;;;10.10;65.30;;;;;;5089855;28;20024;-75
2020/12/15 09:26:02;;;;;;;14.32;4.20;;;10.20;65.10;;;;;;5094512;28;20560;-74
2020/12/15 09:28:29;;;;;;;7.28;3.20;;;10.20;65.20;;;;;;5097470;28;20074;-74
2020/12/15 09:30:56;;;;;;;13.43;3.95;;;10.20;65.20;;;;;;5107390;28;20023;-74
2020/12/15 09:33:25;;;;;;;10.25;3.15;;;10.20;65.20;;;;;;5098983;28;20073;-74
2020/12/15 09:35:52;;;;;;;10.15;3.60;;;10.10;65.40;;;;;;5092217;28;20027;-75
2020/12/15 09:38:18;;;;;;;8.70;2.88;;;10.20;65.50;;;;;;5092707;28;20731;-73
2020/12/15 09:40:45;;;;;;;12.18;3.03;;;10.10;65.70;;;;;;5101487;28;20106;-74
2020/12/15 09:43:11;;;;;;;23.65;4.28;;;10.10;66.30;;;;;;5089936;28;20043;-75
2020/12/15 09:45:38;;;;;;;15.23;4.82;;;10.10;65.70;;;;;;5091543;28;20036;-76
2020/12/15 09:48:04;;;;;;;13.48;3.65;;;10.20;66.10;;;;;;5100421;28;20028;-76
2020/12/15 09:50:31;;;;;;;10.30;4.38;;;10.30;65.80;;;;;;5090418;28;20040;-75
2020/12/15 09:52:58;;;;;;;9.35;4.40;;;10.20;65.70;;;;;;5087295;28;20443;-75
2020/12/15 09:55:24;;;;;;;9.25;4.22;;;10.20;65.60;;;;;;5092724;28;20076;-75
2020/12/15 09:57:51;;;;;;;11.50;3.72;;;10.10;65.90;;;;;;5093919;28;20031;-76
2020/12/15 10:00:17;;;;;;;12.35;3.53;;;10.10;66.30;;;;;;5092833;28;20016;-75
2020/12/15 10:02:44;;;;;;;14.02;3.85;;;10.20;65.70;;;;;;5093550;28;20453;-75
2020/12/15 10:05:10;;;;;;;12.68;3.28;;;10.30;65.20;;;;;;5089851;28;20024;-76
2020/12/15 10:07:38;;;;;;;8.68;3.35;;;10.30;65.10;;;;;;5090277;28;20016;-75
2020/12/15 10:10:05;;;;;;;13.40;3.20;;;10.20;65.30;;;;;;5083963;28;20028;-74
2020/12/15 10:12:32;;;;;;;14.98;4.07;;;10.20;65.60;;;;;;5082598;28;20021;-74
2020/12/15 10:14:58;;;;;;;11.68;3.95;;;10.10;65.70;;;;;;5091020;28;20027;-75
2020/12/15 10:17:25;;;;;;;11.57;3.58;;;10.20;65.30;;;;;;5087401;28;20024;-75
2020/12/15 10:19:52;;;;;;;19.52;4.63;;;10.20;65.40;;;;;;5095958;28;20021;-75
2020/12/15 10:22:18;;;;;;;23.23;5.30;;;10.20;65.10;;;;;;5093323;28;20039;-75
2020/12/15 10:24:45;;;;;;;11.30;3.17;;;10.20;65.20;;;;;;5096862;28;20115;-76
2020/12/15 10:27:11;;;;;;;15.48;4.75;;;10.10;65.30;;;;;;5091792;28;20046;-75
2020/12/15 10:29:38;;;;;;;20.27;6.18;;;10.10;65.40;;;;;;5093459;28;20025;-75
2020/12/15 10:32:05;;;;;;;14.95;4.47;;;10.00;65.50;;;;;;5091123;28;20023;-75
2020/12/15 10:34:31;;;;;;;11.32;3.50;;;9.90;65.50;;;;;;5092083;28;20042;-75
2020/12/15 10:36:58;;;;;;;12.18;4.07;;;9.90;65.90;;;;;;5092337;28;20031;-75
2020/12/15 10:39:24;;;;;;;15.43;3.63;;;9.80;65.70;;;;;;5093950;28;20446;-75
2020/12/15 10:41:51;;;;;;;13.82;3.63;;;9.80;65.80;;;;;;5089245;28;20024;-75
2020/12/15 10:44:18;;;;;;;13.15;4.40;;;9.70;66.20;;;;;;5080183;28;20040;-75
2020/12/15 10:46:45;;;;;;;16.42;4.88;;;9.70;66.40;;;;;;5095608;28;20057;-75
2020/12/15 10:49:13;;;;;;;9.93;3.63;;;9.80;66.20;;;;;;5096394;28;20085;-75
2020/12/15 10:51:39;;;;;;;13.50;3.58;;;9.80;66.10;;;;;;5093149;28;20037;-75
2020/12/15 10:54:06;;;;;;;13.32;3.90;;;9.70;66.20;;;;;;5094948;28;20529;-75
2020/12/15 10:56:33;;;;;;;15.95;3.72;;;9.70;66.60;;;;;;5093285;28;20084;-75
2020/12/15 10:59:00;;;;;;;13.93;3.88;;;9.80;66.50;;;;;;5091815;28;20027;-75
2020/12/15 11:01:28;;;;;;;8.60;3.58;;;9.70;66.50;;;;;;5088517;28;20096;-75
2020/12/15 11:03:54;;;;;;;13.13;4.13;;;9.70;66.50;;;;;;5091866;28;20031;-75
2020/12/15 11:06:23;;;;;;;8.65;4.38;;;9.60;66.60;;;;;;5084680;28;20039;-74
2020/12/15 11:08:49;;;;;;;16.08;5.18;;;9.60;66.80;;;;;;5093950;28;20028;-74
2020/12/15 11:11:15;;;;;;;9.27;4.10;;;9.60;66.60;;;;;;5094839;28;20062;-74
2020/12/15 11:13:42;;;;;;;9.45;3.03;;;9.60;66.90;;;;;;5094744;28;20042;-74
2020/12/15 11:16:08;;;;;;;9.48;4.22;;;9.60;66.60;;;;;;5094440;28;20020;-74
2020/12/15 11:18:35;;;;;;;10.02;3.08;;;9.60;66.90;;;;;;5089922;28;20027;-74
2020/12/15 11:21:01;;;;;;;15.60;3.80;;;9.70;66.90;;;;;;5092487;28;20028;-74
2020/12/15 11:23:28;;;;;;;15.40;4.22;;;9.70;67.20;;;;;;5094158;28;20468;-75
2020/12/15 11:25:54;;;;;;;14.48;3.95;;;9.70;66.90;;;;;;5094343;28;20074;-74
2020/12/15 11:28:20;;;;;;;11.55;3.50;;;9.70;66.90;;;;;;5093498;28;21200;-74
2020/12/15 11:30:47;;;;;;;6.07;3.97;;;9.70;66.90;;;;;;5095431;28;20107;-76
2020/12/15 11:33:13;;;;;;;14.10;4.68;;;9.60;67.00;;;;;;5094657;28;20500;-74
2020/12/15 11:35:40;;;;;;;12.25;4.85;;;9.60;66.90;;;;;;5095324;28;20172;-74
2020/12/15 11:38:06;;;;;;;10.52;3.28;;;9.60;67.20;;;;;;5094168;28;20028;-74
2020/12/15 11:40:32;;;;;;;11.85;3.35;;;9.60;67.20;;;;;;5086054;28;20533;-74
2020/12/15 11:42:59;;;;;;;14.35;4.63;;;9.70;67.20;;;;;;5091428;28;20036;-74
2020/12/15 11:45:26;;;;;;;19.48;3.60;;;9.70;67.10;;;;;;5091657;28;20377;-74
2020/12/15 11:47:53;;;;;;;17.38;4.55;;;9.70;67.10;;;;;;5092211;28;20031;-74
2020/12/15 11:50:20;;;;;;;11.05;4.80;;;9.70;67.20;;;;;;5088504;28;20020;-74
2020/12/15 11:52:46;;;;;;;10.60;3.97;;;9.70;67.10;;;;;;5093736;28;20024;-74
2020/12/15 11:55:13;;;;;;;12.70;2.92;;;9.70;67.10;;;;;;5085622;28;20033;-75
2020/12/15 11:57:39;;;;;;;9.90;3.42;;;9.70;67.00;;;;;;5092008;28;20020;-74
2020/12/15 12:00:08;;;;;;;10.95;3.75;;;9.60;67.40;;;;;;5093312;28;20028;-74
2020/12/15 12:02:38;;;;;;;11.15;4.15;;;9.60;67.50;;;;;;5108118;28;20028;-74
2020/12/15 12:05:04;;;;;;;15.05;5.13;;;9.40;67.60;;;;;;5093461;28;20085;-75
2020/12/15 12:07:31;;;;;;;8.63;4.07;;;9.40;68.00;;;;;;5093147;28;20016;-74
2020/12/15 12:09:57;;;;;;;14.00;4.35;;;9.50;68.50;;;;;;5088765;28;20470;-74
2020/12/15 12:12:23;;;;;;;14.68;4.15;;;9.50;67.90;;;;;;5093815;28;20525;-74
2020/12/15 12:14:50;;;;;;;16.67;4.85;;;9.50;67.80;;;;;;5094909;28;20024;-74
2020/12/15 12:17:16;;;;;;;16.88;4.30;;;9.50;68.50;;;;;;5093571;28;20081;-74
2020/12/15 12:19:43;;;;;;;16.80;4.45;;;9.60;68.20;;;;;;5087726;28;20369;-74
2020/12/15 12:22:09;;;;;;;11.75;3.67;;;9.40;68.10;;;;;;5086917;28;20453;-74
2020/12/15 12:24:36;;;;;;;8.93;5.00;;;9.40;68.50;;;;;;5086750;28;20020;-74
2020/12/15 12:27:02;;;;;;;20.08;4.60;;;9.40;68.90;;;;;;5089121;28;20358;-75
2020/12/15 12:29:29;;;;;;;16.52;4.13;;;9.40;68.60;;;;;;5093075;28;20016;-74
2020/12/15 12:31:55;;;;;;;13.95;4.00;;;9.40;68.80;;;;;;5093340;28;20020;-75
2020/12/15 12:34:21;;;;;;;12.60;4.00;;;9.40;69.00;;;;;;5091998;28;20111;-76
2020/12/15 12:36:48;;;;;;;12.73;4.32;;;9.50;69.10;;;;;;5093678;28;20024;-77
2020/12/15 12:39:14;;;;;;;16.65;4.10;;;9.60;68.50;;;;;;5094887;28;20024;-75
2020/12/15 12:41:41;;;;;;;19.95;4.50;;;9.40;68.90;;;;;;5092891;28;20036;-75
2020/12/15 12:44:07;;;;;;;16.98;4.20;;;9.40;69.20;;;;;;5093596;28;20038;-74